sensor_id;sensor_type;location;lat;lon;timestamp;P1;durP1;ratioP1;P2;durP2;ratioP2
60819;SDS011;46641;48.904;9.126;2023-02-17T00:00:03;5.77;;;3.50;;
60819;SDS011;46641;48.904;9.126;2023-02-17T00:04:54;4.27;;;3.77;;
60819;SDS011;46641;48.904;9.126;2023-02-17T00:09:44;5.90;;;3.65;;
60819;SDS011;46641;48.904;9.126;2023-02-17T00:14:34;4.40;;;3.50;;
60819;SDS011;46641;48.904;9.126;2023-02-17T00:19:25;4.77;;;3.73;;
60819;SDS011;46641;48.904;9.126;2023-02-17T00:24:15;4.10;;;2.97;;
60819;SDS011;46641;48.904;9.126;2023-02-17T00:29:06;4.07;;;3.67;;
60819;SDS011;46641;48.904;9.126;2023-02-17T00:33:56;3.97;;;3.57;;
60819;SDS011;46641;48.904;9.126;2023-02-17T00:50:20;4.43;;;3.50;;
60819;SDS011;46641;48.904;9.126;2023-02-17T00:55:10;3.90;;;3.50;;
60819;SDS011;46641;48.904;9.126;2023-02-17T01:00:01;6.33;;;4.03;;
60819;SDS011;46641;48.904;9.126;2023-02-17T01:04:52;3.87;;;3.20;;
60819;SDS011;46641;48.904;9.126;2023-02-17T01:09:43;4.80;;;3.60;;
60819;SDS011;46641;48.904;9.126;2023-02-17T01:14:33;4.20;;;3.67;;
60819;SDS011;46641;48.904;9.126;2023-02-17T01:19:23;5.63;;;3.65;;
60819;SDS011;46641;48.904;9.126;2023-02-17T01:24:13;3.95;;;3.38;;
60819;SDS011;46641;48.904;9.126;2023-02-17T01:29:04;4.50;;;3.17;;
60819;SDS011;46641;48.904;9.126;2023-02-17T01:33:56;4.00;;;3.43;;
60819;SDS011;46641;48.904;9.126;2023-02-17T01:38:48;5.40;;;3.67;;
60819;SDS011;46641;48.904;9.126;2023-02-17T01:43:38;3.83;;;3.50;;
60819;SDS011;46641;48.904;9.126;2023-02-17T01:48:33;3.70;;;3.30;;
60819;SDS011;46641;48.904;9.126;2023-02-17T01:53:29;4.37;;;3.73;;
60819;SDS011;46641;48.904;9.126;2023-02-17T01:58:39;3.53;;;3.10;;
60819;SDS011;46641;48.904;9.126;2023-02-17T02:03:33;4.67;;;3.30;;
60819;SDS011;46641;48.904;9.126;2023-02-17T02:08:27;6.80;;;3.70;;
60819;SDS011;46641;48.904;9.126;2023-02-17T02:13:23;3.83;;;3.53;;
60819;SDS011;46641;48.904;9.126;2023-02-17T02:18:17;3.80;;;3.40;;
60819;SDS011;46641;48.904;9.126;2023-02-17T02:23:30;3.83;;;3.53;;
60819;SDS011;46641;48.904;9.126;2023-02-17T02:34:25;4.30;;;3.37;;
60819;SDS011;46641;48.904;9.126;2023-02-17T02:39:28;3.60;;;3.30;;
60819;SDS011;46641;48.904;9.126;2023-02-17T02:44:23;4.63;;;3.60;;
60819;SDS011;46641;48.904;9.126;2023-02-17T02:49:14;6.63;;;3.10;;
60819;SDS011;46641;48.904;9.126;2023-02-17T02:54:14;4.57;;;3.35;;
60819;SDS011;46641;48.904;9.126;2023-02-17T03:04:43;3.30;;;2.80;;
60819;SDS011;46641;48.904;9.126;2023-02-17T03:09:40;3.60;;;3.30;;
60819;SDS011;46641;48.904;9.126;2023-02-17T03:14:33;4.20;;;3.63;;
60819;SDS011;46641;48.904;9.126;2023-02-17T03:19:26;4.10;;;2.83;;
60819;SDS011;46641;48.904;9.126;2023-02-17T03:24:17;4.10;;;3.50;;
60819;SDS011;46641;48.904;9.126;2023-02-17T03:29:08;4.63;;;3.30;;
60819;SDS011;46641;48.904;9.126;2023-02-17T03:33:59;3.80;;;3.07;;
60819;SDS011;46641;48.904;9.126;2023-02-17T03:38:49;5.60;;;3.70;;
60819;SDS011;46641;48.904;9.126;2023-02-17T03:43:40;3.73;;;2.87;;
60819;SDS011;46641;48.904;9.126;2023-02-17T03:48:30;3.88;;;3.45;;
60819;SDS011;46641;48.904;9.126;2023-02-17T03:53:20;5.10;;;2.93;;
60819;SDS011;46641;48.904;9.126;2023-02-17T03:58:11;3.33;;;3.03;;
60819;SDS011;46641;48.904;9.126;2023-02-17T04:03:01;3.47;;;3.13;;
60819;SDS011;46641;48.904;9.126;2023-02-17T04:07:51;4.90;;;3.33;;
60819;SDS011;46641;48.904;9.126;2023-02-17T04:12:42;4.30;;;3.80;;
60819;SDS011;46641;48.904;9.126;2023-02-17T04:17:34;4.43;;;3.60;;
60819;SDS011;46641;48.904;9.126;2023-02-17T04:22:25;4.23;;;3.23;;
60819;SDS011;46641;48.904;9.126;2023-02-17T04:27:15;4.57;;;3.37;;
60819;SDS011;46641;48.904;9.126;2023-02-17T04:32:06;6.03;;;3.40;;
60819;SDS011;46641;48.904;9.126;2023-02-17T04:36:56;3.37;;;3.00;;
60819;SDS011;46641;48.904;9.126;2023-02-17T04:41:46;3.07;;;2.87;;
60819;SDS011;46641;48.904;9.126;2023-02-17T04:46:37;4.25;;;3.08;;
60819;SDS011;46641;48.904;9.126;2023-02-17T04:51:27;4.47;;;3.43;;
60819;SDS011;46641;48.904;9.126;2023-02-17T04:56:17;3.97;;;3.13;;
60819;SDS011;46641;48.904;9.126;2023-02-17T05:01:08;4.23;;;3.23;;
60819;SDS011;46641;48.904;9.126;2023-02-17T05:05:58;3.70;;;3.30;;
60819;SDS011;46641;48.904;9.126;2023-02-17T05:10:49;4.43;;;2.97;;
60819;SDS011;46641;48.904;9.126;2023-02-17T05:15:42;3.73;;;2.60;;
60819;SDS011;46641;48.904;9.126;2023-02-17T05:20:33;3.27;;;2.50;;
60819;SDS011;46641;48.904;9.126;2023-02-17T05:25:23;3.45;;;2.95;;
60819;SDS011;46641;48.904;9.126;2023-02-17T05:30:13;2.87;;;2.57;;
60819;SDS011;46641;48.904;9.126;2023-02-17T05:35:04;2.93;;;2.63;;
60819;SDS011;46641;48.904;9.126;2023-02-17T05:39:54;2.90;;;2.53;;
60819;SDS011;46641;48.904;9.126;2023-02-17T05:44:45;3.42;;;2.65;;
60819;SDS011;46641;48.904;9.126;2023-02-17T05:49:35;2.83;;;2.60;;
60819;SDS011;46641;48.904;9.126;2023-02-17T05:54:25;4.07;;;2.80;;
60819;SDS011;46641;48.904;9.126;2023-02-17T05:59:16;3.07;;;2.80;;
60819;SDS011;46641;48.904;9.126;2023-02-17T06:04:06;4.82;;;2.50;;
60819;SDS011;46641;48.904;9.126;2023-02-17T06:08:56;4.03;;;2.70;;
60819;SDS011;46641;48.904;9.126;2023-02-17T06:13:47;3.40;;;2.80;;
60819;SDS011;46641;48.904;9.126;2023-02-17T06:18:37;4.07;;;3.33;;
60819;SDS011;46641;48.904;9.126;2023-02-17T06:23:28;4.63;;;3.20;;
60819;SDS011;46641;48.904;9.126;2023-02-17T06:28:18;4.53;;;3.47;;
60819;SDS011;46641;48.904;9.126;2023-02-17T06:33:09;3.40;;;3.10;;
60819;SDS011;46641;48.904;9.126;2023-02-17T06:37:59;3.20;;;2.90;;
60819;SDS011;46641;48.904;9.126;2023-02-17T06:42:50;3.57;;;3.27;;
60819;SDS011;46641;48.904;9.126;2023-02-17T06:47:40;3.63;;;3.30;;
60819;SDS011;46641;48.904;9.126;2023-02-17T06:52:31;4.63;;;3.60;;
60819;SDS011;46641;48.904;9.126;2023-02-17T06:57:21;2.80;;;2.60;;
60819;SDS011;46641;48.904;9.126;2023-02-17T07:02:12;3.30;;;2.70;;
60819;SDS011;46641;48.904;9.126;2023-02-17T07:07:03;2.87;;;2.60;;
60819;SDS011;46641;48.904;9.126;2023-02-17T07:11:54;3.87;;;3.33;;
60819;SDS011;46641;48.904;9.126;2023-02-17T07:16:44;3.03;;;2.73;;
60819;SDS011;46641;48.904;9.126;2023-02-17T07:21:34;3.60;;;2.60;;
60819;SDS011;46641;48.904;9.126;2023-02-17T07:26:25;3.37;;;2.97;;
60819;SDS011;46641;48.904;9.126;2023-02-17T07:31:15;3.83;;;3.30;;
60819;SDS011;46641;48.904;9.126;2023-02-17T07:36:07;3.57;;;3.23;;
60819;SDS011;46641;48.904;9.126;2023-02-17T07:41:06;3.20;;;2.90;;
60819;SDS011;46641;48.904;9.126;2023-02-17T07:45:57;3.83;;;2.60;;
60819;SDS011;46641;48.904;9.126;2023-02-17T07:50:48;3.30;;;2.73;;
60819;SDS011;46641;48.904;9.126;2023-02-17T07:55:38;4.17;;;3.13;;
60819;SDS011;46641;48.904;9.126;2023-02-17T08:00:28;3.40;;;3.10;;
60819;SDS011;46641;48.904;9.126;2023-02-17T08:05:19;3.10;;;2.50;;
60819;SDS011;46641;48.904;9.126;2023-02-17T08:10:10;3.33;;;2.77;;
60819;SDS011;46641;48.904;9.126;2023-02-17T08:15:20;2.70;;;2.50;;
60819;SDS011;46641;48.904;9.126;2023-02-17T08:20:10;3.43;;;2.83;;
60819;SDS011;46641;48.904;9.126;2023-02-17T08:25:02;4.23;;;2.80;;
60819;SDS011;46641;48.904;9.126;2023-02-17T08:29:55;4.03;;;2.97;;
60819;SDS011;46641;48.904;9.126;2023-02-17T08:34:45;2.90;;;2.40;;
60819;SDS011;46641;48.904;9.126;2023-02-17T08:39:36;3.73;;;3.43;;
60819;SDS011;46641;48.904;9.126;2023-02-17T08:44:26;2.60;;;2.40;;
60819;SDS011;46641;48.904;9.126;2023-02-17T08:49:18;3.83;;;2.80;;
60819;SDS011;46641;48.904;9.126;2023-02-17T08:54:10;3.80;;;3.00;;
60819;SDS011;46641;48.904;9.126;2023-02-17T08:59:02;4.87;;;2.53;;
60819;SDS011;46641;48.904;9.126;2023-02-17T09:03:53;3.70;;;2.83;;
60819;SDS011;46641;48.904;9.126;2023-02-17T09:08:45;3.20;;;2.77;;
60819;SDS011;46641;48.904;9.126;2023-02-17T09:13:36;3.92;;;3.17;;
60819;SDS011;46641;48.904;9.126;2023-02-17T09:18:26;3.10;;;2.80;;
60819;SDS011;46641;48.904;9.126;2023-02-17T09:23:20;2.83;;;2.37;;
60819;SDS011;46641;48.904;9.126;2023-02-17T09:28:11;3.40;;;2.43;;
60819;SDS011;46641;48.904;9.126;2023-02-17T09:33:03;5.30;;;2.50;;
60819;SDS011;46641;48.904;9.126;2023-02-17T09:37:54;4.47;;;2.47;;
60819;SDS011;46641;48.904;9.126;2023-02-17T09:42:44;3.00;;;2.40;;
60819;SDS011;46641;48.904;9.126;2023-02-17T09:47:40;2.77;;;2.43;;
60819;SDS011;46641;48.904;9.126;2023-02-17T09:52:37;2.67;;;2.47;;
60819;SDS011;46641;48.904;9.126;2023-02-17T09:57:48;3.00;;;2.50;;
60819;SDS011;46641;48.904;9.126;2023-02-17T10:02:45;3.80;;;2.13;;
60819;SDS011;46641;48.904;9.126;2023-02-17T10:07:45;2.67;;;2.47;;
60819;SDS011;46641;48.904;9.126;2023-02-17T10:12:46;3.07;;;2.60;;
60819;SDS011;46641;48.904;9.126;2023-02-17T10:17:55;2.93;;;2.00;;
60819;SDS011;46641;48.904;9.126;2023-02-17T10:22:49;3.10;;;2.03;;
60819;SDS011;46641;48.904;9.126;2023-02-17T10:33:30;2.40;;;2.20;;
60819;SDS011;46641;48.904;9.126;2023-02-17T10:39:11;2.50;;;2.10;;
60819;SDS011;46641;48.904;9.126;2023-02-17T10:43:45;2.40;;;2.20;;
60819;SDS011;46641;48.904;9.126;2023-02-17T10:53:33;2.80;;;2.60;;
60819;SDS011;46641;48.904;9.126;2023-02-17T11:03:26;1.23;;;0.70;;
60819;SDS011;46641;48.904;9.126;2023-02-17T11:08:36;0.63;;;0.63;;
60819;SDS011;46641;48.904;9.126;2023-02-17T11:18:26;0.47;;;0.47;;
60819;SDS011;46641;48.904;9.126;2023-02-17T11:23:21;0.40;;;0.40;;
60819;SDS011;46641;48.904;9.126;2023-02-17T11:28:13;0.60;;;0.60;;
60819;SDS011;46641;48.904;9.126;2023-02-17T11:33:14;0.70;;;0.40;;
60819;SDS011;46641;48.904;9.126;2023-02-17T11:38:10;1.50;;;0.80;;
60819;SDS011;46641;48.904;9.126;2023-02-17T11:43:04;0.70;;;0.70;;
60819;SDS011;46641;48.904;9.126;2023-02-17T11:48:02;0.87;;;0.70;;
60819;SDS011;46641;48.904;9.126;2023-02-17T11:53:35;0.50;;;0.50;;
60819;SDS011;46641;48.904;9.126;2023-02-17T12:24:33;1.03;;;0.60;;
60819;SDS011;46641;48.904;9.126;2023-02-17T12:34:58;0.73;;;0.70;;
60819;SDS011;46641;48.904;9.126;2023-02-17T12:39:52;0.50;;;0.50;;
60819;SDS011;46641;48.904;9.126;2023-02-17T12:44:46;0.50;;;0.50;;
60819;SDS011;46641;48.904;9.126;2023-02-17T12:49:42;0.60;;;0.60;;
60819;SDS011;46641;48.904;9.126;2023-02-17T12:54:39;0.93;;;0.70;;
60819;SDS011;46641;48.904;9.126;2023-02-17T12:59:43;1.37;;;0.47;;
60819;SDS011;46641;48.904;9.126;2023-02-17T13:04:36;0.70;;;0.70;;
60819;SDS011;46641;48.904;9.126;2023-02-17T13:09:36;0.87;;;0.67;;
60819;SDS011;46641;48.904;9.126;2023-02-17T13:14:40;0.63;;;0.63;;
60819;SDS011;46641;48.904;9.126;2023-02-17T13:19:36;0.87;;;0.80;;
60819;SDS011;46641;48.904;9.126;2023-02-17T13:24:36;0.60;;;0.60;;
60819;SDS011;46641;48.904;9.126;2023-02-17T13:29:41;0.90;;;0.90;;
60819;SDS011;46641;48.904;9.126;2023-02-17T13:49:21;0.83;;;0.83;;
60819;SDS011;46641;48.904;9.126;2023-02-17T13:54:13;0.77;;;0.77;;
60819;SDS011;46641;48.904;9.126;2023-02-17T13:59:12;0.85;;;0.70;;
60819;SDS011;46641;48.904;9.126;2023-02-17T14:04:25;1.50;;;0.57;;
60819;SDS011;46641;48.904;9.126;2023-02-17T14:14:14;2.10;;;0.90;;
60819;SDS011;46641;48.904;9.126;2023-02-17T14:19:15;0.70;;;0.70;;
60819;SDS011;46641;48.904;9.126;2023-02-17T14:24:20;0.90;;;0.90;;
60819;SDS011;46641;48.904;9.126;2023-02-17T14:29:16;0.50;;;0.50;;
60819;SDS011;46641;48.904;9.126;2023-02-17T14:34:11;0.60;;;0.60;;
60819;SDS011;46641;48.904;9.126;2023-02-17T14:39:13;0.60;;;0.60;;
60819;SDS011;46641;48.904;9.126;2023-02-17T14:44:04;0.80;;;0.80;;
60819;SDS011;46641;48.904;9.126;2023-02-17T14:48:55;3.77;;;0.90;;
60819;SDS011;46641;48.904;9.126;2023-02-17T14:53:45;1.03;;;0.70;;
60819;SDS011;46641;48.904;9.126;2023-02-17T14:58:36;0.50;;;0.50;;
60819;SDS011;46641;48.904;9.126;2023-02-17T15:03:26;0.70;;;0.70;;
60819;SDS011;46641;48.904;9.126;2023-02-17T15:08:18;1.30;;;0.80;;
60819;SDS011;46641;48.904;9.126;2023-02-17T15:13:12;0.77;;;0.60;;
60819;SDS011;46641;48.904;9.126;2023-02-17T15:18:04;1.17;;;0.80;;
60819;SDS011;46641;48.904;9.126;2023-02-17T15:22:54;1.07;;;0.97;;
60819;SDS011;46641;48.904;9.126;2023-02-17T15:27:46;0.77;;;0.77;;
60819;SDS011;46641;48.904;9.126;2023-02-17T15:32:37;1.67;;;1.03;;
60819;SDS011;46641;48.904;9.126;2023-02-17T15:37:28;0.80;;;0.80;;
60819;SDS011;46641;48.904;9.126;2023-02-17T15:42:18;2.20;;;1.00;;
60819;SDS011;46641;48.904;9.126;2023-02-17T15:47:16;2.20;;;1.70;;
60819;SDS011;46641;48.904;9.126;2023-02-17T15:52:09;1.98;;;1.70;;
60819;SDS011;46641;48.904;9.126;2023-02-17T15:57:01;1.57;;;1.47;;
60819;SDS011;46641;48.904;9.126;2023-02-17T16:01:52;2.77;;;1.70;;
60819;SDS011;46641;48.904;9.126;2023-02-17T16:06:45;3.37;;;1.90;;
60819;SDS011;46641;48.904;9.126;2023-02-17T16:11:36;2.40;;;1.40;;
60819;SDS011;46641;48.904;9.126;2023-02-17T16:16:34;3.10;;;1.90;;
60819;SDS011;46641;48.904;9.126;2023-02-17T16:21:25;1.87;;;1.67;;
60819;SDS011;46641;48.904;9.126;2023-02-17T16:31:14;2.40;;;1.83;;
60819;SDS011;46641;48.904;9.126;2023-02-17T16:36:10;1.70;;;1.42;;
60819;SDS011;46641;48.904;9.126;2023-02-17T16:41:03;2.97;;;1.90;;
60819;SDS011;46641;48.904;9.126;2023-02-17T16:45:57;2.07;;;1.87;;
60819;SDS011;46641;48.904;9.126;2023-02-17T16:50:50;2.87;;;2.10;;
60819;SDS011;46641;48.904;9.126;2023-02-17T16:55:40;2.60;;;2.10;;
60819;SDS011;46641;48.904;9.126;2023-02-17T17:00:31;2.75;;;2.55;;
60819;SDS011;46641;48.904;9.126;2023-02-17T17:05:22;3.10;;;2.10;;
60819;SDS011;46641;48.904;9.126;2023-02-17T17:10:22;3.00;;;2.07;;
60819;SDS011;46641;48.904;9.126;2023-02-17T17:15:15;2.50;;;2.30;;
60819;SDS011;46641;48.904;9.126;2023-02-17T17:20:06;2.20;;;2.00;;
60819;SDS011;46641;48.904;9.126;2023-02-17T17:25:01;2.80;;;2.30;;
60819;SDS011;46641;48.904;9.126;2023-02-17T17:29:51;2.63;;;2.23;;
60819;SDS011;46641;48.904;9.126;2023-02-17T17:34:41;2.53;;;2.33;;
60819;SDS011;46641;48.904;9.126;2023-02-17T17:39:33;2.60;;;2.40;;
60819;SDS011;46641;48.904;9.126;2023-02-17T17:44:23;2.50;;;2.27;;
60819;SDS011;46641;48.904;9.126;2023-02-17T17:49:16;3.47;;;2.53;;
60819;SDS011;46641;48.904;9.126;2023-02-17T17:54:07;2.40;;;2.20;;
60819;SDS011;46641;48.904;9.126;2023-02-17T17:58:59;3.37;;;2.60;;
60819;SDS011;46641;48.904;9.126;2023-02-17T18:03:51;4.53;;;2.67;;
60819;SDS011;46641;48.904;9.126;2023-02-17T18:08:42;2.93;;;2.20;;
60819;SDS011;46641;48.904;9.126;2023-02-17T18:13:34;4.00;;;2.23;;
60819;SDS011;46641;48.904;9.126;2023-02-17T18:18:24;2.67;;;2.47;;
60819;SDS011;46641;48.904;9.126;2023-02-17T18:23:15;2.97;;;2.67;;
60819;SDS011;46641;48.904;9.126;2023-02-17T18:28:05;4.30;;;2.70;;
60819;SDS011;46641;48.904;9.126;2023-02-17T18:32:55;2.67;;;2.13;;
60819;SDS011;46641;48.904;9.126;2023-02-17T18:37:46;2.08;;;1.98;;
60819;SDS011;46641;48.904;9.126;2023-02-17T18:42:37;2.70;;;2.20;;
60819;SDS011;46641;48.904;9.126;2023-02-17T18:47:28;2.57;;;1.93;;
60819;SDS011;46641;48.904;9.126;2023-02-17T18:52:19;3.30;;;2.50;;
60819;SDS011;46641;48.904;9.126;2023-02-17T18:57:09;3.60;;;2.40;;
60819;SDS011;46641;48.904;9.126;2023-02-17T19:02:05;2.83;;;2.63;;
60819;SDS011;46641;48.904;9.126;2023-02-17T19:06:56;3.63;;;3.20;;
60819;SDS011;46641;48.904;9.126;2023-02-17T19:11:52;3.43;;;3.13;;
60819;SDS011;46641;48.904;9.126;2023-02-17T19:16:42;3.65;;;3.35;;
60819;SDS011;46641;48.904;9.126;2023-02-17T19:21:32;3.50;;;3.20;;
60819;SDS011;46641;48.904;9.126;2023-02-17T19:26:22;4.33;;;3.07;;
60819;SDS011;46641;48.904;9.126;2023-02-17T19:31:14;4.60;;;3.40;;
60819;SDS011;46641;48.904;9.126;2023-02-17T19:36:09;4.03;;;2.57;;
60819;SDS011;46641;48.904;9.126;2023-02-17T19:41:02;3.10;;;2.67;;
60819;SDS011;46641;48.904;9.126;2023-02-17T19:45:54;2.50;;;2.20;;
60819;SDS011;46641;48.904;9.126;2023-02-17T19:50:44;2.13;;;1.93;;
60819;SDS011;46641;48.904;9.126;2023-02-17T19:55:35;3.00;;;2.20;;
60819;SDS011;46641;48.904;9.126;2023-02-17T20:00:25;1.98;;;1.83;;
60819;SDS011;46641;48.904;9.126;2023-02-17T20:05:15;1.90;;;1.58;;
60819;SDS011;46641;48.904;9.126;2023-02-17T20:10:06;1.20;;;1.10;;
60819;SDS011;46641;48.904;9.126;2023-02-17T20:15:00;1.43;;;1.10;;
60819;SDS011;46641;48.904;9.126;2023-02-17T20:19:51;1.20;;;1.08;;
60819;SDS011;46641;48.904;9.126;2023-02-17T20:24:42;1.40;;;1.03;;
60819;SDS011;46641;48.904;9.126;2023-02-17T20:29:32;1.00;;;0.90;;
60819;SDS011;46641;48.904;9.126;2023-02-17T20:34:32;0.70;;;0.70;;
60819;SDS011;46641;48.904;9.126;2023-02-17T20:39:25;1.57;;;0.83;;
60819;SDS011;46641;48.904;9.126;2023-02-17T20:44:15;1.13;;;1.00;;
60819;SDS011;46641;48.904;9.126;2023-02-17T20:49:07;1.10;;;1.00;;
60819;SDS011;46641;48.904;9.126;2023-02-17T20:53:58;1.00;;;1.00;;
60819;SDS011;46641;48.904;9.126;2023-02-17T20:58:48;0.95;;;0.95;;
60819;SDS011;46641;48.904;9.126;2023-02-17T21:03:39;1.13;;;1.13;;
60819;SDS011;46641;48.904;9.126;2023-02-17T21:08:29;1.08;;;1.08;;
60819;SDS011;46641;48.904;9.126;2023-02-17T21:13:20;2.13;;;1.10;;
60819;SDS011;46641;48.904;9.126;2023-02-17T21:18:11;1.57;;;1.23;;
60819;SDS011;46641;48.904;9.126;2023-02-17T21:23:02;0.90;;;0.90;;
60819;SDS011;46641;48.904;9.126;2023-02-17T21:27:52;1.20;;;1.10;;
60819;SDS011;46641;48.904;9.126;2023-02-17T21:32:43;0.93;;;0.93;;
60819;SDS011;46641;48.904;9.126;2023-02-17T21:37:33;1.67;;;1.50;;
60819;SDS011;46641;48.904;9.126;2023-02-17T21:42:23;1.30;;;1.20;;
60819;SDS011;46641;48.904;9.126;2023-02-17T21:47:34;1.47;;;1.20;;
60819;SDS011;46641;48.904;9.126;2023-02-17T21:52:24;0.90;;;0.90;;
60819;SDS011;46641;48.904;9.126;2023-02-17T21:57:14;0.93;;;0.93;;
60819;SDS011;46641;48.904;9.126;2023-02-17T22:02:05;1.48;;;1.38;;
60819;SDS011;46641;48.904;9.126;2023-02-17T22:06:55;2.15;;;1.20;;
60819;SDS011;46641;48.904;9.126;2023-02-17T22:11:45;1.40;;;1.30;;
60819;SDS011;46641;48.904;9.126;2023-02-17T22:16:36;1.57;;;1.10;;
60819;SDS011;46641;48.904;9.126;2023-02-17T22:21:27;1.17;;;1.07;;
60819;SDS011;46641;48.904;9.126;2023-02-17T22:26:23;0.97;;;0.90;;
60819;SDS011;46641;48.904;9.126;2023-02-17T22:31:15;0.90;;;0.90;;
60819;SDS011;46641;48.904;9.126;2023-02-17T22:36:12;1.00;;;1.00;;
60819;SDS011;46641;48.904;9.126;2023-02-17T22:41:08;0.87;;;0.87;;
60819;SDS011;46641;48.904;9.126;2023-02-17T22:46:00;0.70;;;0.70;;
60819;SDS011;46641;48.904;9.126;2023-02-17T22:50:50;1.23;;;1.00;;
60819;SDS011;46641;48.904;9.126;2023-02-17T22:55:41;1.20;;;1.10;;
60819;SDS011;46641;48.904;9.126;2023-02-17T23:00:31;1.33;;;1.23;;
60819;SDS011;46641;48.904;9.126;2023-02-17T23:05:21;2.50;;;1.50;;
60819;SDS011;46641;48.904;9.126;2023-02-17T23:10:12;1.60;;;1.50;;
60819;SDS011;46641;48.904;9.126;2023-02-17T23:15:02;1.00;;;1.00;;
60819;SDS011;46641;48.904;9.126;2023-02-17T23:19:52;1.93;;;1.23;;
60819;SDS011;46641;48.904;9.126;2023-02-17T23:24:46;1.97;;;1.83;;
60819;SDS011;46641;48.904;9.126;2023-02-17T23:29:37;1.80;;;1.50;;
60819;SDS011;46641;48.904;9.126;2023-02-17T23:34:29;1.60;;;1.50;;
60819;SDS011;46641;48.904;9.126;2023-02-17T23:39:19;1.27;;;1.27;;
60819;SDS011;46641;48.904;9.126;2023-02-17T23:44:11;1.70;;;1.60;;
60819;SDS011;46641;48.904;9.126;2023-02-17T23:49:02;1.50;;;1.40;;
60819;SDS011;46641;48.904;9.126;2023-02-17T23:53:53;1.80;;;1.50;;
60819;SDS011;46641;48.904;9.126;2023-02-17T23:58:43;1.90;;;1.70;;
